Thornton, Wisconsin
Current Conditions -  °F | °C
As of 2:15 PM on Sunday 25 Jan 2015 (Local Time) from KEZS Reporting Station
Clear Clear  
Wind Chill: 15°   Ceiling: Unl
Heat Index: 23°   Visibility: 10mi
Dew Point:   Wind: 7mph
Humidity: 55%   Direction: 60°ENE
Pressure: 30.03"   Gusts: NA
Location:  44.7924°N, 88.6722°W
Report Text: KEZS 252015Z AUTO 06006KT 10SM CLR M05/M13 A3003 RMK AO2 T10481126
Loading
Personal Weather Stations






























Interactive Weather Map New forecast layout! Learn more

10-Day Weather Forecast

Advertisements
Track Severe Weather on mobile